createdAt,value
2022-12-06T08:00:10.851Z,4.27
2022-12-06T08:01:10.822Z,4.27
2022-12-06T08:02:10.700Z,4.27
2022-12-06T08:03:10.629Z,4.23
2022-12-06T08:04:10.629Z,4.23
2022-12-06T08:05:10.493Z,4.27
2022-12-06T08:06:10.418Z,4.23
2022-12-06T08:07:10.364Z,4.30
2022-12-06T08:08:10.327Z,4.34
2022-12-06T08:09:10.271Z,4.34
2022-12-06T08:10:10.376Z,4.30
2022-12-06T08:11:10.098Z,4.27
2022-12-06T08:12:10.026Z,4.38
2022-12-06T08:13:09.941Z,4.38
2022-12-06T08:14:09.883Z,4.38
2022-12-06T08:15:09.795Z,4.42
2022-12-06T08:16:09.798Z,4.39
2022-12-06T08:17:09.669Z,4.35
2022-12-06T08:18:09.610Z,4.38
2022-12-06T08:19:09.522Z,4.35
2022-12-06T08:20:09.476Z,4.30
2022-12-06T08:21:09.384Z,4.28
2022-12-06T08:22:09.312Z,4.27
2022-12-06T08:23:09.244Z,4.24
2022-12-06T08:24:09.188Z,4.23
2022-12-06T08:25:09.108Z,4.21
2022-12-06T08:26:09.033Z,4.20
2022-12-06T08:27:08.965Z,4.20
2022-12-06T08:28:08.918Z,4.17
2022-12-06T08:29:08.830Z,4.17
2022-12-06T08:30:08.756Z,4.21
2022-12-06T08:31:08.834Z,4.21
2022-12-06T08:32:08.617Z,4.21
2022-12-06T08:33:08.553Z,4.18
2022-12-06T08:34:08.480Z,4.26
2022-12-06T08:35:08.438Z,4.27
2022-12-06T08:36:08.350Z,4.34
2022-12-06T08:37:08.272Z,4.43
2022-12-06T08:38:08.201Z,4.38
2022-12-06T08:39:08.157Z,4.42
2022-12-06T08:40:08.064Z,4.39
2022-12-06T08:41:08.010Z,4.46
2022-12-06T08:42:07.923Z,4.53
2022-12-06T08:43:07.870Z,4.63
2022-12-06T08:44:07.791Z,4.60
2022-12-06T08:45:07.716Z,4.67
2022-12-06T08:46:07.720Z,4.63
2022-12-06T08:47:07.585Z,4.57
2022-12-06T08:48:07.532Z,4.63
2022-12-06T08:49:07.442Z,4.64
2022-12-06T08:50:07.373Z,4.66
2022-12-06T08:51:07.312Z,4.57
2022-12-06T08:52:07.281Z,4.66
2022-12-06T08:53:07.163Z,4.59
2022-12-06T08:54:07.093Z,4.53
2022-12-06T08:55:07.045Z,4.51
2022-12-06T08:56:06.982Z,4.56
2022-12-06T08:57:06.888Z,4.54
2022-12-06T08:58:06.827Z,4.51
2022-12-06T08:59:06.749Z,4.41
2022-12-06T09:00:06.681Z,4.38
2022-12-06T09:01:06.621Z,4.38
2022-12-06T09:02:06.589Z,4.45
2022-12-06T09:03:06.494Z,4.43
2022-12-06T09:04:06.553Z,4.53
2022-12-06T09:05:06.455Z,4.53
2022-12-06T09:06:06.262Z,4.60
2022-12-06T09:07:11.374Z,4.64
2022-12-06T09:08:06.179Z,4.64
2022-12-06T09:09:06.061Z,4.61
2022-12-06T09:10:05.988Z,4.57
2022-12-06T09:11:05.929Z,4.66
2022-12-06T09:12:05.882Z,4.75
2022-12-06T09:13:05.791Z,4.74
2022-12-06T09:14:05.712Z,4.74
2022-12-06T09:15:05.646Z,4.64
2022-12-06T09:16:05.651Z,4.72
2022-12-06T09:17:05.506Z,4.69
2022-12-06T09:18:05.440Z,4.71
2022-12-06T09:19:05.385Z,4.75
2022-12-06T09:20:06.319Z,4.67
2022-12-06T09:21:05.271Z,4.67
2022-12-06T09:22:05.165Z,4.75
2022-12-06T09:23:05.090Z,4.69
2022-12-06T09:24:05.035Z,4.64
2022-12-06T09:25:04.955Z,4.72
2022-12-06T09:26:04.888Z,4.72
2022-12-06T09:27:04.817Z,4.66
2022-12-06T09:28:04.768Z,4.66
2022-12-06T09:29:04.678Z,4.66
2022-12-06T09:30:04.623Z,4.79
2022-12-06T09:31:04.576Z,4.67
2022-12-06T09:32:04.483Z,4.72
2022-12-06T09:33:04.410Z,4.77
2022-12-06T09:34:04.337Z,4.77
2022-12-06T09:35:04.265Z,4.64
2022-12-06T09:36:04.197Z,4.77
2022-12-06T09:37:04.131Z,4.72
2022-12-06T09:38:04.060Z,4.72
2022-12-06T09:39:04.032Z,4.74
2022-12-06T09:40:04.120Z,4.83
2022-12-06T09:41:03.857Z,4.82
